Terminal Aerodrome Forecast
Issued by NWS

Current Version | Previous Version | Text Only | Print | Product List | Glossary Off
Versions: 1 2 3 4 5 6 7 8 9 10 11 12 13 14 15 16 17 18 19 20 21 22 23 24 25

523
FTUS41 KRLX 251724
TAFCKB
TAF
KCKB 251724Z 2518/2618 06006KT P6SM BKN070 OVC090
     FM260200 VRB03KT P6SM BKN040
     FM260600 00000KT 6SM BR SCT250
     FM260700 00000KT 5SM BR SCT250
     FM260900 00000KT 2SM BR SCT250=

USA.gov is the U.S. government's official web portal to all federal, state and local government web resources and services.